sensor_id;sensor_type;location;lat;lon;timestamp;pressure;altitude;pressure_sealevel;temperature;humidity
48824;BME280;34640;53.590;10.054;2023-10-09T00:03:09;101771.50;;;11.36;100.00
48824;BME280;34640;53.590;10.054;2023-10-09T00:06:02;101747.94;;;11.35;100.00
48824;BME280;34640;53.590;10.054;2023-10-09T00:08:54;101747.13;;;11.36;100.00
48824;BME280;34640;53.590;10.054;2023-10-09T00:11:48;101706.22;;;11.35;100.00
48824;BME280;34640;53.590;10.054;2023-10-09T00:14:44;101700.41;;;11.27;100.00
48824;BME280;34640;53.590;10.054;2023-10-09T00:17:39;101696.09;;;11.27;100.00
48824;BME280;34640;53.590;10.054;2023-10-09T00:20:37;101687.16;;;11.24;100.00
48824;BME280;34640;53.590;10.054;2023-10-09T00:23:32;101675.63;;;11.20;100.00
48824;BME280;34640;53.590;10.054;2023-10-09T00:26:24;101675.19;;;11.14;100.00
48824;BME280;34640;53.590;10.054;2023-10-09T00:29:16;101660.81;;;11.08;100.00
48824;BME280;34640;53.590;10.054;2023-10-09T00:32:11;101655.59;;;11.08;100.00
48824;BME280;34640;53.590;10.054;2023-10-09T00:35:14;101653.44;;;11.02;100.00
48824;BME280;34640;53.590;10.054;2023-10-09T00:38:19;101637.38;;;10.96;100.00
48824;BME280;34640;53.590;10.054;2023-10-09T00:41:14;101637.16;;;10.93;100.00
48824;BME280;34640;53.590;10.054;2023-10-09T00:44:09;101648.00;;;10.99;100.00
48824;BME280;34640;53.590;10.054;2023-10-09T00:47:01;101644.03;;;11.04;100.00
48824;BME280;34640;53.590;10.054;2023-10-09T00:50:03;101631.47;;;10.98;100.00
48824;BME280;34640;53.590;10.054;2023-10-09T00:53:02;101632.84;;;10.93;100.00
48824;BME280;34640;53.590;10.054;2023-10-09T00:56:01;101619.81;;;10.93;100.00
48824;BME280;34640;53.590;10.054;2023-10-09T00:59:08;101605.09;;;10.94;100.00
48824;BME280;34640;53.590;10.054;2023-10-09T01:02:04;101594.53;;;10.92;100.00
48824;BME280;34640;53.590;10.054;2023-10-09T01:04:57;101587.63;;;10.93;100.00
48824;BME280;34640;53.590;10.054;2023-10-09T01:07:49;101577.44;;;10.96;100.00
48824;BME280;34640;53.590;10.054;2023-10-09T01:10:49;101586.31;;;10.86;100.00
48824;BME280;34640;53.590;10.054;2023-10-09T01:13:49;101585.25;;;10.84;100.00
48824;BME280;34640;53.590;10.054;2023-10-09T01:16:44;101575.41;;;10.80;100.00
48824;BME280;34640;53.590;10.054;2023-10-09T01:19:37;101577.91;;;10.79;100.00
48824;BME280;34640;53.590;10.054;2023-10-09T01:22:29;101577.47;;;10.73;100.00
48824;BME280;34640;53.590;10.054;2023-10-09T01:25:22;101565.63;;;10.64;100.00
48824;BME280;34640;53.590;10.054;2023-10-09T01:28:13;101563.34;;;10.69;100.00
48824;BME280;34640;53.590;10.054;2023-10-09T01:31:06;101546.31;;;10.74;100.00
48824;BME280;34640;53.590;10.054;2023-10-09T01:33:58;101545.63;;;10.77;100.00
48824;BME280;34640;53.590;10.054;2023-10-09T01:36:50;101537.13;;;10.79;100.00
48824;BME280;34640;53.590;10.054;2023-10-09T01:39:45;101543.81;;;10.76;100.00
48824;BME280;34640;53.590;10.054;2023-10-09T01:42:39;101552.66;;;10.78;100.00
48824;BME280;34640;53.590;10.054;2023-10-09T01:45:35;101548.25;;;10.77;100.00
48824;BME280;34640;53.590;10.054;2023-10-09T01:48:33;101541.59;;;10.68;100.00
48824;BME280;34640;53.590;10.054;2023-10-09T01:51:29;101535.38;;;10.66;100.00
48824;BME280;34640;53.590;10.054;2023-10-09T01:54:25;101516.03;;;10.63;100.00
48824;BME280;34640;53.590;10.054;2023-10-09T01:57:27;101524.50;;;10.60;100.00
48824;BME280;34640;53.590;10.054;2023-10-09T02:00:21;101526.28;;;10.61;100.00
48824;BME280;34640;53.590;10.054;2023-10-09T02:03:17;101520.44;;;10.64;100.00
48824;BME280;34640;53.590;10.054;2023-10-09T02:06:17;101518.25;;;10.70;100.00
48824;BME280;34640;53.590;10.054;2023-10-09T02:09:16;101501.94;;;10.73;100.00
48824;BME280;34640;53.590;10.054;2023-10-09T02:12:12;101507.84;;;10.70;100.00
48824;BME280;34640;53.590;10.054;2023-10-09T02:15:05;101488.38;;;10.65;100.00
48824;BME280;34640;53.590;10.054;2023-10-09T02:18:07;101478.41;;;10.59;100.00
48824;BME280;34640;53.590;10.054;2023-10-09T02:21:09;101500.50;;;10.64;100.00
48824;BME280;34640;53.590;10.054;2023-10-09T02:24:04;101505.00;;;10.67;100.00
48824;BME280;34640;53.590;10.054;2023-10-09T02:26:59;101483.16;;;10.65;100.00
48824;BME280;34640;53.590;10.054;2023-10-09T02:30:01;101488.72;;;10.58;100.00
48824;BME280;34640;53.590;10.054;2023-10-09T02:33:07;101507.84;;;10.58;100.00
48824;BME280;34640;53.590;10.054;2023-10-09T02:35:59;101506.03;;;10.57;100.00
48824;BME280;34640;53.590;10.054;2023-10-09T02:38:55;101512.38;;;10.61;100.00
48824;BME280;34640;53.590;10.054;2023-10-09T02:41:46;101475.78;;;10.59;100.00
48824;BME280;34640;53.590;10.054;2023-10-09T02:44:39;101474.56;;;10.54;100.00
48824;BME280;34640;53.590;10.054;2023-10-09T02:47:36;101454.22;;;10.49;100.00
48824;BME280;34640;53.590;10.054;2023-10-09T02:50:31;101461.34;;;10.51;100.00
48824;BME280;34640;53.590;10.054;2023-10-09T02:53:28;101456.03;;;10.50;100.00
48824;BME280;34640;53.590;10.054;2023-10-09T02:56:25;101459.44;;;10.49;100.00
48824;BME280;34640;53.590;10.054;2023-10-09T02:59:26;101452.84;;;10.54;100.00
48824;BME280;34640;53.590;10.054;2023-10-09T03:02:19;101461.13;;;10.48;100.00
48824;BME280;34640;53.590;10.054;2023-10-09T03:05:14;101449.91;;;10.49;100.00
48824;BME280;34640;53.590;10.054;2023-10-09T03:08:07;101452.41;;;10.48;100.00
48824;BME280;34640;53.590;10.054;2023-10-09T03:10:58;101429.19;;;10.51;100.00
48824;BME280;34640;53.590;10.054;2023-10-09T03:13:50;101433.50;;;10.50;100.00
48824;BME280;34640;53.590;10.054;2023-10-09T03:16:42;101434.19;;;10.48;100.00
48824;BME280;34640;53.590;10.054;2023-10-09T03:19:34;101420.94;;;10.45;100.00
48824;BME280;34640;53.590;10.054;2023-10-09T03:22:40;101411.34;;;10.44;100.00
48824;BME280;34640;53.590;10.054;2023-10-09T03:25:33;101405.13;;;10.42;100.00
48824;BME280;34640;53.590;10.054;2023-10-09T03:28:27;101402.28;;;10.38;100.00
48824;BME280;34640;53.590;10.054;2023-10-09T03:31:19;101390.25;;;10.40;100.00
48824;BME280;34640;53.590;10.054;2023-10-09T03:34:11;101394.34;;;10.37;100.00
48824;BME280;34640;53.590;10.054;2023-10-09T03:37:03;101406.34;;;10.35;100.00
48824;BME280;34640;53.590;10.054;2023-10-09T03:40:10;101389.03;;;10.35;100.00
48824;BME280;34640;53.590;10.054;2023-10-09T03:43:09;101402.97;;;10.36;100.00
48824;BME280;34640;53.590;10.054;2023-10-09T03:46:02;101395.34;;;10.39;100.00
48824;BME280;34640;53.590;10.054;2023-10-09T03:48:55;101383.25;;;10.39;100.00
48824;BME280;34640;53.590;10.054;2023-10-09T03:51:47;101383.84;;;10.35;100.00
48824;BME280;34640;53.590;10.054;2023-10-09T03:54:39;101382.94;;;10.35;100.00
48824;BME280;34640;53.590;10.054;2023-10-09T03:57:34;101384.63;;;10.34;100.00
48824;BME280;34640;53.590;10.054;2023-10-09T04:00:28;101382.13;;;10.36;100.00
48824;BME280;34640;53.590;10.054;2023-10-09T04:03:20;101386.44;;;10.35;100.00
48824;BME280;34640;53.590;10.054;2023-10-09T04:06:11;101378.63;;;10.35;100.00
48824;BME280;34640;53.590;10.054;2023-10-09T04:09:03;101378.72;;;10.37;100.00
48824;BME280;34640;53.590;10.054;2023-10-09T04:12:17;101365.91;;;10.40;100.00
48824;BME280;34640;53.590;10.054;2023-10-09T04:15:15;101363.31;;;10.40;100.00
48824;BME280;34640;53.590;10.054;2023-10-09T04:18:08;101359.72;;;10.38;100.00
48824;BME280;34640;53.590;10.054;2023-10-09T04:21:05;101367.41;;;10.36;100.00
48824;BME280;34640;53.590;10.054;2023-10-09T04:24:08;101358.00;;;10.38;100.00
48824;BME280;34640;53.590;10.054;2023-10-09T04:27:12;101350.44;;;10.42;100.00
48824;BME280;34640;53.590;10.054;2023-10-09T04:30:07;101356.66;;;10.44;100.00
48824;BME280;34640;53.590;10.054;2023-10-09T04:33:05;101358.66;;;10.48;100.00
48824;BME280;34640;53.590;10.054;2023-10-09T04:36:03;101354.16;;;10.45;100.00
48824;BME280;34640;53.590;10.054;2023-10-09T04:39:12;101355.97;;;10.46;100.00
48824;BME280;34640;53.590;10.054;2023-10-09T04:42:20;101359.47;;;10.47;100.00
48824;BME280;34640;53.590;10.054;2023-10-09T04:45:27;101350.53;;;10.43;100.00
48824;BME280;34640;53.590;10.054;2023-10-09T04:48:36;101359.16;;;10.42;100.00
48824;BME280;34640;53.590;10.054;2023-10-09T04:51:30;101358.91;;;10.39;100.00
48824;BME280;34640;53.590;10.054;2023-10-09T04:54:24;101367.97;;;10.44;100.00
48824;BME280;34640;53.590;10.054;2023-10-09T04:57:29;101363.06;;;10.49;100.00
48824;BME280;34640;53.590;10.054;2023-10-09T05:00:28;101359.38;;;10.45;100.00
48824;BME280;34640;53.590;10.054;2023-10-09T05:03:37;101359.47;;;10.47;100.00
48824;BME280;34640;53.590;10.054;2023-10-09T05:06:36;101355.41;;;10.38;100.00
48824;BME280;34640;53.590;10.054;2023-10-09T05:09:41;101353.28;;;10.33;100.00
48824;BME280;34640;53.590;10.054;2023-10-09T05:12:45;101339.53;;;10.22;100.00
48824;BME280;34640;53.590;10.054;2023-10-09T05:15:46;101329.22;;;10.24;100.00
48824;BME280;34640;53.590;10.054;2023-10-09T05:18:42;101319.03;;;10.27;100.00
48824;BME280;34640;53.590;10.054;2023-10-09T05:21:37;101319.50;;;10.21;100.00
48824;BME280;34640;53.590;10.054;2023-10-09T05:24:34;101319.38;;;10.20;100.00
48824;BME280;34640;53.590;10.054;2023-10-09T05:27:37;101320.28;;;10.20;100.00
48824;BME280;34640;53.590;10.054;2023-10-09T05:30:41;101318.72;;;10.22;100.00
48824;BME280;34640;53.590;10.054;2023-10-09T05:33:32;101312.59;;;10.22;100.00
48824;BME280;34640;53.590;10.054;2023-10-09T05:36:27;101307.13;;;10.19;100.00
48824;BME280;34640;53.590;10.054;2023-10-09T05:39:26;101308.31;;;10.22;100.00
48824;BME280;34640;53.590;10.054;2023-10-09T05:42:31;101309.72;;;10.19;100.00
48824;BME280;34640;53.590;10.054;2023-10-09T05:45:33;101313.41;;;10.21;100.00
48824;BME280;34640;53.590;10.054;2023-10-09T05:48:42;101325.72;;;10.23;100.00
48824;BME280;34640;53.590;10.054;2023-10-09T05:51:44;101333.53;;;10.23;100.00
48824;BME280;34640;53.590;10.054;2023-10-09T05:54:44;101319.94;;;10.27;100.00
48824;BME280;34640;53.590;10.054;2023-10-09T05:58:05;101317.00;;;10.23;100.00
48824;BME280;34640;53.590;10.054;2023-10-09T06:01:14;101314.72;;;10.16;100.00
48824;BME280;34640;53.590;10.054;2023-10-09T06:04:23;101313.50;;;10.10;100.00
48824;BME280;34640;53.590;10.054;2023-10-09T06:07:24;101302.78;;;10.06;100.00
48824;BME280;34640;53.590;10.054;2023-10-09T06:10:32;101322.47;;;10.02;100.00
48824;BME280;34640;53.590;10.054;2023-10-09T06:13:30;101346.31;;;10.08;100.00
48824;BME280;34640;53.590;10.054;2023-10-09T06:16:28;101340.22;;;10.08;100.00
48824;BME280;34640;53.590;10.054;2023-10-09T06:19:33;101331.50;;;10.07;100.00
48824;BME280;34640;53.590;10.054;2023-10-09T06:22:33;101317.72;;;9.97;100.00
48824;BME280;34640;53.590;10.054;2023-10-09T06:25:44;101317.41;;;9.92;100.00
48824;BME280;34640;53.590;10.054;2023-10-09T06:28:41;101336.72;;;9.96;100.00
48824;BME280;34640;53.590;10.054;2023-10-09T06:31:40;101315.81;;;9.94;100.00
48824;BME280;34640;53.590;10.054;2023-10-09T06:34:49;101307.19;;;9.95;100.00
48824;BME280;34640;53.590;10.054;2023-10-09T06:37:42;101302.25;;;9.98;100.00
48824;BME280;34640;53.590;10.054;2023-10-09T06:40:49;101307.91;;;9.93;100.00
48824;BME280;34640;53.590;10.054;2023-10-09T06:44:07;101285.75;;;9.86;100.00
48824;BME280;34640;53.590;10.054;2023-10-09T06:47:18;101286.69;;;9.75;100.00
48824;BME280;34640;53.590;10.054;2023-10-09T06:50:14;101278.13;;;9.76;100.00
48824;BME280;34640;53.590;10.054;2023-10-09T06:53:32;101273.22;;;9.80;100.00
48824;BME280;34640;53.590;10.054;2023-10-09T06:56:39;101297.84;;;9.86;100.00
48824;BME280;34640;53.590;10.054;2023-10-09T06:59:50;101298.06;;;9.89;100.00
48824;BME280;34640;53.590;10.054;2023-10-09T07:03:01;101297.16;;;9.88;100.00
48824;BME280;34640;53.590;10.054;2023-10-09T07:06:05;101278.84;;;9.87;100.00
48824;BME280;34640;53.590;10.054;2023-10-09T07:09:00;101279.88;;;9.89;100.00
48824;BME280;34640;53.590;10.054;2023-10-09T07:12:02;101286.66;;;9.87;100.00
48824;BME280;34640;53.590;10.054;2023-10-09T07:15:00;101285.88;;;9.88;100.00
48824;BME280;34640;53.590;10.054;2023-10-09T07:18:08;101297.59;;;9.94;100.00
48824;BME280;34640;53.590;10.054;2023-10-09T07:21:15;101302.09;;;9.97;100.00
48824;BME280;34640;53.590;10.054;2023-10-09T07:24:17;101295.00;;;9.94;100.00
48824;BME280;34640;53.590;10.054;2023-10-09T07:27:17;101287.88;;;9.92;100.00
48824;BME280;34640;53.590;10.054;2023-10-09T07:30:28;101287.19;;;9.94;100.00
48824;BME280;34640;53.590;10.054;2023-10-09T07:33:29;101281.53;;;10.00;100.00
48824;BME280;34640;53.590;10.054;2023-10-09T07:36:45;101287.84;;;10.03;100.00
48824;BME280;34640;53.590;10.054;2023-10-09T07:39:38;101279.34;;;10.06;100.00
48824;BME280;34640;53.590;10.054;2023-10-09T07:42:41;101275.97;;;10.07;100.00
48824;BME280;34640;53.590;10.054;2023-10-09T07:45:35;101276.16;;;10.10;100.00
48824;BME280;34640;53.590;10.054;2023-10-09T07:49:05;101277.38;;;10.15;100.00
48824;BME280;34640;53.590;10.054;2023-10-09T07:51:59;101285.19;;;10.15;100.00
48824;BME280;34640;53.590;10.054;2023-10-09T07:54:50;101276.78;;;10.19;100.00
48824;BME280;34640;53.590;10.054;2023-10-09T07:57:44;101271.59;;;10.19;100.00
48824;BME280;34640;53.590;10.054;2023-10-09T08:00:42;101284.50;;;10.18;100.00
48824;BME280;34640;53.590;10.054;2023-10-09T08:03:57;101284.78;;;10.21;100.00
48824;BME280;34640;53.590;10.054;2023-10-09T08:06:52;101284.59;;;10.19;100.00
48824;BME280;34640;53.590;10.054;2023-10-09T08:10:03;101275.69;;;10.16;100.00
48824;BME280;34640;53.590;10.054;2023-10-09T08:13:13;101281.88;;;10.29;100.00
48824;BME280;34640;53.590;10.054;2023-10-09T08:16:25;101285.50;;;10.31;100.00
48824;BME280;34640;53.590;10.054;2023-10-09T08:19:26;101277.59;;;10.30;100.00
48824;BME280;34640;53.590;10.054;2023-10-09T08:22:23;101275.28;;;10.34;100.00
48824;BME280;34640;53.590;10.054;2023-10-09T08:25:33;101272.78;;;10.36;100.00
48824;BME280;34640;53.590;10.054;2023-10-09T08:28:42;101281.41;;;10.35;100.00
48824;BME280;34640;53.590;10.054;2023-10-09T08:31:33;101276.13;;;10.47;100.00
48824;BME280;34640;53.590;10.054;2023-10-09T08:34:35;101283.94;;;10.47;100.00
48824;BME280;34640;53.590;10.054;2023-10-09T08:37:41;101283.94;;;10.47;100.00
48824;BME280;34640;53.590;10.054;2023-10-09T08:40:33;101279.84;;;10.50;100.00
48824;BME280;34640;53.590;10.054;2023-10-09T08:43:27;101281.75;;;10.53;100.00
48824;BME280;34640;53.590;10.054;2023-10-09T08:46:24;101285.38;;;10.55;100.00
48824;BME280;34640;53.590;10.054;2023-10-09T08:49:18;101287.38;;;10.59;100.00
48824;BME280;34640;53.590;10.054;2023-10-09T08:52:11;101284.88;;;10.60;100.00
48824;BME280;34640;53.590;10.054;2023-10-09T08:55:04;101280.78;;;10.64;100.00
48824;BME280;34640;53.590;10.054;2023-10-09T08:57:55;101287.31;;;10.70;100.00
48824;BME280;34640;53.590;10.054;2023-10-09T09:00:48;101276.09;;;10.71;100.00
48824;BME280;34640;53.590;10.054;2023-10-09T09:03:41;101279.81;;;10.75;100.00
48824;BME280;34640;53.590;10.054;2023-10-09T09:06:38;101278.31;;;10.79;100.00
48824;BME280;34640;53.590;10.054;2023-10-09T09:09:31;101271.19;;;10.76;100.00
48824;BME280;34640;53.590;10.054;2023-10-09T09:12:24;101275.28;;;10.73;100.00
48824;BME280;34640;53.590;10.054;2023-10-09T09:15:18;101268.56;;;10.76;100.00
48824;BME280;34640;53.590;10.054;2023-10-09T09:18:11;101272.19;;;10.78;100.00
48824;BME280;34640;53.590;10.054;2023-10-09T09:21:17;101279.00;;;10.76;100.00
48824;BME280;34640;53.590;10.054;2023-10-09T09:24:12;101272.09;;;10.77;100.00
48824;BME280;34640;53.590;10.054;2023-10-09T09:27:16;101274.00;;;10.79;100.00
48824;BME280;34640;53.590;10.054;2023-10-09T09:30:16;101266.47;;;10.84;100.00
48824;BME280;34640;53.590;10.054;2023-10-09T09:33:17;101273.38;;;10.83;100.00
48824;BME280;34640;53.590;10.054;2023-10-09T09:36:18;101271.13;;;10.88;100.00
48824;BME280;34640;53.590;10.054;2023-10-09T09:39:09;101274.13;;;10.94;100.00
48824;BME280;34640;53.590;10.054;2023-10-09T09:42:09;101274.81;;;10.91;100.00
48824;BME280;34640;53.590;10.054;2023-10-09T09:45:05;101265.19;;;10.90;100.00
48824;BME280;34640;53.590;10.054;2023-10-09T09:47:57;101265.78;;;10.99;100.00
48824;BME280;34640;53.590;10.054;2023-10-09T09:50:55;101260.22;;;11.07;100.00
48824;BME280;34640;53.590;10.054;2023-10-09T09:53:48;101260.50;;;11.11;100.00
48824;BME280;34640;53.590;10.054;2023-10-09T09:56:42;101260.59;;;11.13;100.00
48824;BME280;34640;53.590;10.054;2023-10-09T09:59:39;101258.19;;;11.16;100.00
48824;BME280;34640;53.590;10.054;2023-10-09T10:02:39;101251.88;;;11.12;100.00
48824;BME280;34640;53.590;10.054;2023-10-09T10:05:31;101247.75;;;11.16;100.00
48824;BME280;34640;53.590;10.054;2023-10-09T10:08:24;101245.97;;;11.15;100.00
48824;BME280;34640;53.590;10.054;2023-10-09T10:11:42;101248.75;;;11.18;100.00
48824;BME280;34640;53.590;10.054;2023-10-09T10:14:42;101244.84;;;11.24;100.00
48824;BME280;34640;53.590;10.054;2023-10-09T10:21:08;101249.84;;;11.21;100.00
48824;BME280;34640;53.590;10.054;2023-10-09T10:24:04;101246.97;;;11.30;100.00
48824;BME280;34640;53.590;10.054;2023-10-09T10:30:28;101242.13;;;11.36;100.00
48824;BME280;34640;53.590;10.054;2023-10-09T10:33:23;101244.63;;;11.35;100.00
48824;BME280;34640;53.590;10.054;2023-10-09T10:36:17;101257.78;;;11.36;100.00
48824;BME280;34640;53.590;10.054;2023-10-09T10:39:14;101247.34;;;11.36;100.00
48824;BME280;34640;53.590;10.054;2023-10-09T10:42:14;101247.63;;;11.41;100.00
48824;BME280;34640;53.590;10.054;2023-10-09T10:45:24;101249.63;;;11.45;100.00
48824;BME280;34640;53.590;10.054;2023-10-09T10:48:26;101248.00;;;11.47;100.00
48824;BME280;34640;53.590;10.054;2023-10-09T10:51:27;101249.13;;;11.50;100.00
48824;BME280;34640;53.590;10.054;2023-10-09T10:54:28;101257.34;;;11.56;100.00
48824;BME280;34640;53.590;10.054;2023-10-09T10:57:35;101248.44;;;11.53;100.00
48824;BME280;34640;53.590;10.054;2023-10-09T11:00:44;101245.00;;;11.54;100.00
48824;BME280;34640;53.590;10.054;2023-10-09T11:04:12;101256.72;;;11.60;100.00
48824;BME280;34640;53.590;10.054;2023-10-09T11:07:04;101252.41;;;11.61;100.00
48824;BME280;34640;53.590;10.054;2023-10-09T11:10:00;101252.50;;;11.62;100.00
48824;BME280;34640;53.590;10.054;2023-10-09T11:12:59;101251.59;;;11.62;100.00
48824;BME280;34640;53.590;10.054;2023-10-09T11:16:08;101242.88;;;11.61;100.00
48824;BME280;34640;53.590;10.054;2023-10-09T11:19:18;101236.84;;;11.62;100.00
48824;BME280;34640;53.590;10.054;2023-10-09T11:22:30;101242.34;;;11.67;100.00
48824;BME280;34640;53.590;10.054;2023-10-09T11:25:26;101241.16;;;11.75;100.00
48824;BME280;34640;53.590;10.054;2023-10-09T11:28:17;101237.53;;;11.73;100.00
48824;BME280;34640;53.590;10.054;2023-10-09T11:31:20;101232.59;;;11.78;100.00
48824;BME280;34640;53.590;10.054;2023-10-09T11:34:20;101244.75;;;11.77;100.00
48824;BME280;34640;53.590;10.054;2023-10-09T11:37:19;101242.34;;;11.80;100.00
48824;BME280;34640;53.590;10.054;2023-10-09T11:40:28;101238.94;;;11.81;100.00
48824;BME280;34640;53.590;10.054;2023-10-09T11:43:23;101240.94;;;11.85;100.00
48824;BME280;34640;53.590;10.054;2023-10-09T11:46:35;101241.38;;;11.78;100.00
48824;BME280;34640;53.590;10.054;2023-10-09T11:49:47;101241.47;;;11.80;100.00
48824;BME280;34640;53.590;10.054;2023-10-09T11:55:46;101238.69;;;11.91;100.00
48824;BME280;34640;53.590;10.054;2023-10-09T11:58:38;101236.75;;;12.02;100.00
48824;BME280;34640;53.590;10.054;2023-10-09T12:01:32;101237.66;;;12.03;100.00
48824;BME280;34640;53.590;10.054;2023-10-09T12:04:27;101239.00;;;12.11;100.00
48824;BME280;34640;53.590;10.054;2023-10-09T12:07:22;101226.97;;;12.13;100.00
48824;BME280;34640;53.590;10.054;2023-10-09T12:10:14;101225.81;;;12.22;100.00
48824;BME280;34640;53.590;10.054;2023-10-09T12:13:14;101221.13;;;12.17;100.00
48824;BME280;34640;53.590;10.054;2023-10-09T12:16:06;101226.06;;;12.12;100.00
48824;BME280;34640;53.590;10.054;2023-10-09T12:19:00;101215.19;;;12.19;100.00
48824;BME280;34640;53.590;10.054;2023-10-09T12:21:52;101225.00;;;12.23;100.00
48824;BME280;34640;53.590;10.054;2023-10-09T12:24:45;101222.84;;;12.31;100.00
48824;BME280;34640;53.590;10.054;2023-10-09T12:27:36;101220.63;;;12.37;100.00
48824;BME280;34640;53.590;10.054;2023-10-09T12:30:28;101229.72;;;12.44;100.00
48824;BME280;34640;53.590;10.054;2023-10-09T12:33:20;101239.63;;;12.49;100.00
48824;BME280;34640;53.590;10.054;2023-10-09T12:36:18;101226.41;;;12.61;100.00
48824;BME280;34640;53.590;10.054;2023-10-09T12:39:10;101238.56;;;12.61;100.00
48824;BME280;34640;53.590;10.054;2023-10-09T12:42:08;101235.88;;;12.59;100.00
48824;BME280;34640;53.590;10.054;2023-10-09T12:45:02;101239.16;;;12.57;100.00
48824;BME280;34640;53.590;10.054;2023-10-09T12:47:58;101239.28;;;12.58;100.00
48824;BME280;34640;53.590;10.054;2023-10-09T12:50:53;101232.69;;;12.50;100.00
48824;BME280;34640;53.590;10.054;2023-10-09T12:53:45;101228.44;;;12.52;100.00
48824;BME280;34640;53.590;10.054;2023-10-09T12:56:38;101239.72;;;12.51;100.00
48824;BME280;34640;53.590;10.054;2023-10-09T12:59:31;101230.06;;;12.50;100.00
48824;BME280;34640;53.590;10.054;2023-10-09T13:02:22;101226.81;;;12.54;100.00
48824;BME280;34640;53.590;10.054;2023-10-09T13:05:19;101221.09;;;12.60;100.00
48824;BME280;34640;53.590;10.054;2023-10-09T13:08:16;101222.44;;;12.68;100.00
48824;BME280;34640;53.590;10.054;2023-10-09T13:11:10;101219.16;;;12.72;100.00
48824;BME280;34640;53.590;10.054;2023-10-09T13:14:02;101221.59;;;12.69;100.00
48824;BME280;34640;53.590;10.054;2023-10-09T13:17:03;101228.16;;;12.77;100.00
48824;BME280;34640;53.590;10.054;2023-10-09T13:20:01;101223.59;;;12.88;100.00
48824;BME280;34640;53.590;10.054;2023-10-09T13:22:53;101226.19;;;12.88;100.00
48824;BME280;34640;53.590;10.054;2023-10-09T13:25:47;101218.53;;;12.91;100.00
48824;BME280;34640;53.590;10.054;2023-10-09T13:28:39;101228.34;;;12.95;100.00
48824;BME280;34640;53.590;10.054;2023-10-09T13:31:31;101221.31;;;12.94;100.00
48824;BME280;34640;53.590;10.054;2023-10-09T13:34:26;101223.03;;;12.93;100.00
48824;BME280;34640;53.590;10.054;2023-10-09T13:37:18;101224.19;;;12.98;100.00
48824;BME280;34640;53.590;10.054;2023-10-09T13:40:12;101235.75;;;13.02;100.00
48824;BME280;34640;53.590;10.054;2023-10-09T13:43:17;101231.03;;;13.11;100.00
48824;BME280;34640;53.590;10.054;2023-10-09T13:46:08;101221.72;;;13.16;100.00
48824;BME280;34640;53.590;10.054;2023-10-09T13:48:59;101223.34;;;13.14;100.00
48824;BME280;34640;53.590;10.054;2023-10-09T13:51:52;101221.38;;;13.10;100.00
48824;BME280;34640;53.590;10.054;2023-10-09T13:54:46;101215.69;;;13.17;100.00
48824;BME280;34640;53.590;10.054;2023-10-09T13:57:40;101221.31;;;13.23;100.00
48824;BME280;34640;53.590;10.054;2023-10-09T14:00:33;101217.06;;;13.25;100.00
48824;BME280;34640;53.590;10.054;2023-10-09T14:03:24;101229.31;;;13.26;100.00
48824;BME280;34640;53.590;10.054;2023-10-09T14:06:17;101225.16;;;13.30;100.00
48824;BME280;34640;53.590;10.054;2023-10-09T14:09:21;101228.59;;;13.29;100.00
48824;BME280;34640;53.590;10.054;2023-10-09T14:12:29;101227.94;;;13.33;100.00
48824;BME280;34640;53.590;10.054;2023-10-09T14:15:21;101223.94;;;13.39;100.00
48824;BME280;34640;53.590;10.054;2023-10-09T14:18:13;101225.00;;;13.43;100.00
48824;BME280;34640;53.590;10.054;2023-10-09T14:21:04;101225.09;;;13.44;100.00
48824;BME280;34640;53.590;10.054;2023-10-09T14:24:06;101232.31;;;13.49;100.00
48824;BME280;34640;53.590;10.054;2023-10-09T14:27:10;101227.00;;;13.47;100.00
48824;BME280;34640;53.590;10.054;2023-10-09T14:30:07;101226.94;;;13.45;100.00
48824;BME280;34640;53.590;10.054;2023-10-09T14:33:09;101222.59;;;13.46;100.00
48824;BME280;34640;53.590;10.054;2023-10-09T14:36:03;101226.66;;;13.41;100.00
48824;BME280;34640;53.590;10.054;2023-10-09T14:38:55;101216.47;;;13.45;100.00
48824;BME280;34640;53.590;10.054;2023-10-09T14:41:47;101218.34;;;13.48;100.00
48824;BME280;34640;53.590;10.054;2023-10-09T14:44:42;101225.38;;;13.49;100.00
48824;BME280;34640;53.590;10.054;2023-10-09T14:47:35;101228.00;;;13.49;100.00
48824;BME280;34640;53.590;10.054;2023-10-09T14:50:27;101227.91;;;13.48;100.00
48824;BME280;34640;53.590;10.054;2023-10-09T14:53:19;101223.41;;;13.45;100.00
48824;BME280;34640;53.590;10.054;2023-10-09T14:56:11;101225.09;;;13.44;100.00
48824;BME280;34640;53.590;10.054;2023-10-09T14:59:05;101226.72;;;13.42;100.00
48824;BME280;34640;53.590;10.054;2023-10-09T15:01:58;101226.81;;;13.44;100.00
48824;BME280;34640;53.590;10.054;2023-10-09T15:04:49;101232.16;;;13.45;100.00
48824;BME280;34640;53.590;10.054;2023-10-09T15:07:42;101232.25;;;13.47;100.00
48824;BME280;34640;53.590;10.054;2023-10-09T15:10:43;101237.56;;;13.49;100.00
48824;BME280;34640;53.590;10.054;2023-10-09T15:13:35;101237.81;;;13.53;100.00
48824;BME280;34640;53.590;10.054;2023-10-09T15:16:29;101238.88;;;13.57;100.00
48824;BME280;34640;53.590;10.054;2023-10-09T15:19:23;101239.75;;;13.57;100.00